Time;durP1;ratioP1;P1;durP2;ratioP2;P2;SDS_P1;SDS_P2;PMS_P1;PMS_P2;Temp;Humidity;BMP_temperature;BMP_pressure;BME280_temperature;BME280_humidity;BME280_pressure;Samples;Min_cycle;Max_cycle;Signal;HPM_P1;HPM_P2
2022/03/28 00:00:25;;;;;;;20.92;11.82;;;;;;;7.29;68.65;102651.91;5049387;28;20025;-66
2022/03/28 00:02:51;;;;;;;21.90;11.32;;;;;;;7.27;69.22;102644.97;5051430;28;20029;-65
2022/03/28 00:05:16;;;;;;;17.77;10.48;;;;;;;7.21;69.09;102641.63;5051173;28;20027;-65
2022/03/28 00:07:42;;;;;;;19.15;11.02;;;;;;;7.20;69.18;102644.31;5050561;28;20037;-65
2022/03/28 00:10:08;;;;;;;21.95;11.52;;;;;;;7.14;69.65;102644.50;5051315;28;20453;-65
2022/03/28 00:12:34;;;;;;;19.10;10.57;;;;;;;7.12;69.26;102633.13;5051028;28;20033;-65
2022/03/28 00:14:59;;;;;;;19.23;10.60;;;;;;;7.08;69.50;102629.72;5050467;28;20106;-65
2022/03/28 00:17:25;;;;;;;21.17;10.68;;;;;;;7.06;69.97;102623.63;5050785;28;20036;-65
2022/03/28 00:19:50;;;;;;;17.30;10.70;;;;;;;7.00;70.05;102622.03;5050643;28;20078;-65
2022/03/28 00:22:16;;;;;;;19.95;11.48;;;;;;;6.94;70.31;102619.59;5050401;28;20127;-66
2022/03/28 00:24:41;;;;;;;24.20;11.00;;;;;;;6.90;70.37;102617.97;5050731;28;20040;-66
2022/03/28 00:27:06;;;;;;;17.67;9.80;;;;;;;6.88;69.86;102619.81;5050428;28;20135;-66
2022/03/28 00:29:32;;;;;;;19.80;10.05;;;;;;;6.82;70.41;102612.94;5051056;28;20036;-65
2022/03/28 00:31:57;;;;;;;22.90;11.27;;;;;;;6.80;70.28;102608.63;5050544;28;20474;-65
2022/03/28 00:34:23;;;;;;;25.20;11.15;;;;;;;6.75;70.64;102603.50;5030737;28;20040;-65
2022/03/28 00:36:50;;;;;;;18.55;10.73;;;;;;;6.73;70.45;102600.06;5040476;28;20463;-65
2022/03/28 00:39:16;;;;;;;21.27;10.77;;;;;;;6.72;70.19;102593.03;5050418;28;20032;-66
2022/03/28 00:41:42;;;;;;;17.58;10.07;;;;;;;6.70;70.01;102597.50;5050058;28;20033;-65
2022/03/28 00:44:07;;;;;;;19.42;10.68;;;;;;;6.68;70.36;102594.06;5050334;28;20120;-65
2022/03/28 00:46:35;;;;;;;19.70;10.77;;;;;;;6.64;70.63;102590.66;5050408;28;20120;-65
2022/03/28 00:49:00;;;;;;;20.35;10.90;;;;;;;6.63;70.66;102586.28;5050030;28;20510;-65
2022/03/28 00:51:25;;;;;;;18.90;10.68;;;;;;;6.59;70.86;102589.91;5044704;28;20034;-65
2022/03/28 00:53:51;;;;;;;20.77;10.27;;;;;;;6.58;70.10;102592.63;5030281;28;20050;-65
2022/03/28 00:56:17;;;;;;;19.65;11.38;;;;;;;6.53;70.62;102583.97;5030685;28;20029;-65
2022/03/28 00:58:42;;;;;;;24.60;11.85;;;;;;;6.50;71.12;102582.28;5030423;28;20044;-65
2022/03/28 01:01:09;;;;;;;16.80;10.55;;;;;;;6.52;70.69;102574.34;5043601;28;20029;-65
2022/03/28 01:03:35;;;;;;;22.15;11.73;;;;;;;6.47;70.93;102569.19;5050166;28;20439;-65
2022/03/28 01:06:00;;;;;;;22.92;11.63;;;;;;;6.42;71.53;102569.31;5049776;28;20032;-66
2022/03/28 01:08:26;;;;;;;19.58;9.82;;;;;;;6.40;71.57;102570.31;5050069;28;20025;-66
2022/03/28 01:10:55;;;;;;;23.15;10.90;;;;;;;6.37;71.66;102565.13;5050676;28;20489;-65
2022/03/28 01:13:21;;;;;;;18.85;10.70;;;;;;;6.33;71.56;102563.47;5050233;28;20424;-65
2022/03/28 01:15:46;;;;;;;19.05;10.38;;;;;;;6.31;71.39;102563.50;5034706;28;20116;-66
2022/03/28 01:18:11;;;;;;;19.58;10.50;;;;;;;6.27;71.59;102559.25;5030138;28;20530;-66
2022/03/28 01:20:41;;;;;;;20.42;11.10;;;;;;;6.22;71.84;102558.53;5030317;28;20063;-66
2022/03/28 01:23:08;;;;;;;22.73;10.73;;;;;;;6.19;71.71;102548.94;5030140;28;20033;-66
2022/03/28 01:25:33;;;;;;;22.02;10.35;;;;;;;6.16;71.96;102545.53;5045059;28;20036;-66
2022/03/28 01:28:00;;;;;;;21.65;11.23;;;;;;;6.14;71.98;102548.22;5049965;28;20029;-66
2022/03/28 01:30:28;;;;;;;20.77;10.00;;;;;;;6.11;72.53;102545.66;5049800;28;20029;-66
2022/03/28 01:32:55;;;;;;;19.60;10.27;;;;;;;6.07;72.40;102541.41;5044529;28;20029;-66
2022/03/28 01:35:30;;;;;;;20.48;10.02;;;;;;;6.06;72.19;102543.19;5048862;28;20378;-66
2022/03/28 01:37:55;;;;;;;18.95;10.00;;;;;;;5.99;72.14;102536.34;5049818;28;20048;-65
2022/03/28 01:40:21;;;;;;;23.17;10.55;;;;;;;6.01;72.52;102536.31;5049237;28;20580;-65
2022/03/28 01:42:49;;;;;;;19.38;10.18;;;;;;;5.95;72.46;102529.41;5049657;28;20431;-65
2022/03/28 01:45:15;;;;;;;20.10;10.07;;;;;;;5.87;72.22;102534.91;5049455;28;20044;-65
2022/03/28 01:47:40;;;;;;;21.83;10.18;;;;;;;5.84;72.69;102531.50;5049950;28;20032;-65
2022/03/28 01:50:06;;;;;;;19.25;10.32;;;;;;;5.82;72.70;102526.28;5039710;28;20029;-66
2022/03/28 01:52:31;;;;;;;20.00;10.20;;;;;;;5.81;72.45;102531.59;5033459;28;20388;-66
2022/03/28 01:54:56;;;;;;;18.27;9.68;;;;;;;5.79;72.23;102530.78;5033848;28;20069;-66
2022/03/28 01:57:22;;;;;;;19.70;10.68;;;;;;;5.76;72.29;102534.34;5034105;28;20033;-66
2022/03/28 01:59:47;;;;;;;22.67;9.70;;;;;;;5.72;72.76;102532.72;5038320;28;20025;-66
2022/03/28 02:02:13;;;;;;;21.38;10.95;;;;;;;5.71;72.67;102525.72;5053380;28;20021;-66
2022/03/28 02:04:38;;;;;;;19.92;9.90;;;;;;;5.65;73.23;102529.41;5053220;28;20033;-66
2022/03/28 02:07:03;;;;;;;18.25;10.55;;;;;;;5.64;73.32;102525.03;5052674;28;20513;-65
2022/03/28 02:09:29;;;;;;;20.00;10.25;;;;;;;5.62;73.53;102523.38;5033173;28;20029;-65
2022/03/28 02:11:54;;;;;;;22.88;10.70;;;;;;;5.64;73.05;102527.66;5033492;28;20033;-65
2022/03/28 02:14:20;;;;;;;25.23;11.05;;;;;;;5.63;73.44;102522.44;5040826;28;20382;-65
2022/03/28 02:16:45;;;;;;;23.70;10.95;;;;;;;5.63;73.35;102525.06;5053251;28;20032;-65
2022/03/28 02:19:10;;;;;;;23.33;10.30;;;;;;;5.61;72.93;102516.34;5052992;28;20025;-65
2022/03/28 02:21:36;;;;;;;23.95;11.27;;;;;;;5.58;72.98;102517.31;5051443;28;20087;-65
2022/03/28 02:24:01;;;;;;;21.00;11.18;;;;;;;5.55;73.72;102507.72;5032918;28;20133;-65
2022/03/28 02:26:26;;;;;;;24.67;11.48;;;;;;;5.51;74.30;102507.84;5068884;22;20073;-63
2022/03/28 02:28:52;;;;;;;22.65;11.32;;;;;;;5.49;74.51;102507.03;5037559;28;20060;-62
2022/03/28 02:31:17;;;;;;;22.48;10.80;;;;;;;5.46;74.24;102501.84;5037646;28;20428;-62
2022/03/28 02:33:44;;;;;;;20.63;10.63;;;;;;;5.43;73.98;102500.19;5034160;28;20030;-62
2022/03/28 02:36:10;;;;;;;20.13;9.45;;;;;;;5.38;73.41;102502.94;5037305;28;20068;-62
2022/03/28 02:38:35;;;;;;;22.63;10.27;;;;;;;5.34;73.83;102496.00;5029476;28;20704;-62
2022/03/28 02:41:01;;;;;;;27.63;11.07;;;;;;;5.33;74.00;102490.81;5018469;28;20057;-62
2022/03/28 02:43:26;;;;;;;21.52;10.70;;;;;;;5.31;74.18;102493.47;5036063;28;20036;-62
2022/03/28 02:45:51;;;;;;;18.60;9.73;;;;;;;5.30;74.41;102483.84;5043037;28;20025;-62
2022/03/28 02:48:16;;;;;;;23.63;10.25;;;;;;;5.27;74.50;102488.34;5057551;28;20024;-62
2022/03/28 02:50:42;;;;;;;17.15;10.10;;;;;;;5.21;75.01;102476.19;5065283;28;20096;-62
2022/03/28 02:53:07;;;;;;;23.90;10.65;;;;;;;5.21;74.54;102480.59;5057167;28;20065;-62
2022/03/28 02:55:32;;;;;;;22.10;11.02;;;;;;;5.21;74.91;102481.44;5067721;28;20036;-63
2022/03/28 02:57:58;;;;;;;18.80;10.35;;;;;;;5.16;74.89;102473.69;5047435;28;20029;-63
2022/03/28 03:00:23;;;;;;;21.65;9.95;;;;;;;5.16;74.64;102473.69;5044097;28;20026;-63
2022/03/28 03:02:48;;;;;;;18.17;10.18;;;;;;;5.14;74.62;102469.38;5043791;28;20505;-63
2022/03/28 03:05:13;;;;;;;23.20;10.60;;;;;;;5.10;75.21;102471.22;5042950;28;20049;-63
2022/03/28 03:07:39;;;;;;;18.88;10.88;;;;;;;5.08;75.66;102459.88;5047541;28;20025;-62
2022/03/28 03:10:06;;;;;;;18.55;10.70;;;;;;;5.05;75.47;102467.00;5039247;28;20033;-63
2022/03/28 03:12:31;;;;;;;20.58;10.45;;;;;;;5.05;74.79;102461.72;5044323;28;20033;-63
2022/03/28 03:14:57;;;;;;;24.25;10.93;;;;;;;5.04;74.68;102454.72;5036096;28;20072;-63
2022/03/28 03:17:22;;;;;;;23.05;10.48;;;;;;;4.98;75.11;102455.78;5028693;28;20034;-62
2022/03/28 03:19:48;;;;;;;17.60;9.48;;;;;;;4.94;75.21;102454.97;5024873;28;20026;-62
2022/03/28 03:22:14;;;;;;;23.02;10.90;;;;;;;4.91;75.58;102454.19;5025085;28;20042;-62
2022/03/28 03:24:40;;;;;;;21.48;10.77;;;;;;;4.94;75.33;102459.38;5028457;28;20030;-63
2022/03/28 03:27:06;;;;;;;20.75;10.90;;;;;;;4.93;75.34;102452.38;5027562;28;20080;-62
2022/03/28 03:29:32;;;;;;;18.52;10.68;;;;;;;4.91;74.69;102451.56;5028485;28;20068;-63
2022/03/28 03:31:57;;;;;;;23.13;11.35;;;;;;;4.91;75.32;102449.81;5043121;28;20093;-62
2022/03/28 03:34:22;;;;;;;20.52;11.25;;;;;;;4.88;76.05;102444.63;5050622;28;20028;-63
2022/03/28 03:36:47;;;;;;;21.55;10.77;;;;;;;4.88;75.27;102443.72;5042385;28;20030;-62
2022/03/28 03:39:13;;;;;;;23.25;10.93;;;;;;;4.86;75.26;102440.28;5029257;28;20014;-63
2022/03/28 03:41:38;;;;;;;22.63;11.35;;;;;;;4.86;75.07;102442.91;5029263;28;20041;-62
2022/03/28 03:44:05;;;;;;;22.05;11.25;;;;;;;4.82;75.24;102440.38;5029426;28;20038;-63
2022/03/28 03:46:31;;;;;;;18.52;10.43;;;;;;;4.81;75.16;102437.78;5030653;28;20026;-63
2022/03/28 03:48:57;;;;;;;21.15;10.77;;;;;;;4.79;75.15;102432.53;5030525;28;20014;-63
2022/03/28 03:51:22;;;;;;;21.33;10.90;;;;;;;4.79;75.27;102431.69;5031024;28;20603;-63
2022/03/28 03:53:47;;;;;;;22.23;10.95;;;;;;;4.77;75.13;102428.25;5045244;28;20026;-63
2022/03/28 03:56:13;;;;;;;24.83;10.80;;;;;;;4.74;75.58;102417.78;5030307;28;20094;-63
2022/03/28 03:58:38;;;;;;;28.17;11.25;;;;;;;4.73;75.43;102419.56;5030674;28;20045;-64
2022/03/28 04:01:04;;;;;;;21.48;10.68;;;;;;;4.73;75.51;102422.19;5030377;28;20055;-65
2022/03/28 04:03:29;;;;;;;23.85;11.60;;;;;;;4.70;76.04;102422.28;5029580;28;20045;-64
2022/03/28 04:05:54;;;;;;;25.15;11.38;;;;;;;4.64;76.12;102423.28;5036946;28;20021;-64
2022/03/28 04:08:20;;;;;;;25.25;11.02;;;;;;;4.66;75.96;102419.75;5030685;28;20022;-64
2022/03/28 04:10:45;;;;;;;22.98;10.95;;;;;;;4.62;76.38;102419.84;5031075;28;20101;-64
2022/03/28 04:13:11;;;;;;;23.00;10.73;;;;;;;4.61;76.40;102411.97;5029024;28;20041;-64
2022/03/28 04:15:36;;;;;;;21.15;11.10;;;;;;;4.57;76.40;102416.47;5044234;28;20291;-64
2022/03/28 04:18:02;;;;;;;21.88;10.82;;;;;;;4.56;76.61;102411.25;5029606;28;20053;-64
2022/03/28 04:20:29;;;;;;;23.30;10.95;;;;;;;4.54;76.71;102410.41;5030424;28;20024;-64
2022/03/28 04:22:54;;;;;;;25.02;11.27;;;;;;;4.51;76.78;102405.25;5030122;28;20076;-64
2022/03/28 04:25:20;;;;;;;19.77;10.23;;;;;;;4.50;76.21;102408.78;5030202;28;20014;-65
2022/03/28 04:27:45;;;;;;;20.88;10.50;;;;;;;4.47;76.37;102414.97;5031325;28;20061;-64
2022/03/28 04:30:12;;;;;;;20.00;9.93;;;;;;;4.45;76.38;102409.75;5031305;28;20022;-64
2022/03/28 04:32:37;;;;;;;18.60;10.32;;;;;;;4.44;75.97;102418.53;5030306;28;20116;-64
2022/03/28 04:35:05;;;;;;;20.75;10.52;;;;;;;4.38;75.72;102416.09;5029278;28;20041;-64
2022/03/28 04:37:35;;;;;;;23.27;10.50;;;;;;;4.37;76.15;102411.72;5028608;28;20076;-64
2022/03/28 04:40:03;;;;;;;23.88;11.05;;;;;;;4.33;76.54;102412.72;5030991;28;20030;-64
2022/03/28 04:42:28;;;;;;;23.38;11.38;;;;;;;4.34;76.43;102411.78;5030798;28;20025;-64
2022/03/28 04:44:53;;;;;;;23.20;10.50;;;;;;;4.34;76.33;102413.56;5029955;28;20033;-64
2022/03/28 04:47:18;;;;;;;25.00;10.52;;;;;;;4.32;76.30;102405.72;5026674;28;20036;-64
2022/03/28 04:49:44;;;;;;;25.58;11.00;;;;;;;4.29;76.84;102402.28;5027851;28;20010;-65
2022/03/28 04:52:09;;;;;;;22.55;10.98;;;;;;;4.27;76.80;102404.97;5028470;28;20082;-64
2022/03/28 04:54:36;;;;;;;22.45;10.27;;;;;;;4.24;77.00;102407.66;5030284;28;20041;-64
2022/03/28 04:57:02;;;;;;;19.35;10.52;;;;;;;4.20;76.95;102409.50;5030721;28;20030;-64
2022/03/28 04:59:28;;;;;;;24.80;11.07;;;;;;;4.20;77.05;102403.41;5029187;28;20040;-64
2022/03/28 05:01:53;;;;;;;28.35;10.38;;;;;;;4.15;76.54;102410.53;5032136;28;20021;-64
2022/03/28 05:04:19;;;;;;;25.33;10.95;;;;;;;4.12;77.04;102416.72;5034245;28;20057;-64
2022/03/28 05:06:44;;;;;;;29.27;11.15;;;;;;;4.10;77.28;102413.28;5045456;28;20045;-64
2022/03/28 05:09:09;;;;;;;23.00;10.48;;;;;;;4.07;76.90;102416.81;5032384;28;20030;-64
2022/03/28 05:11:34;;;;;;;25.27;10.75;;;;;;;4.06;77.17;102411.59;5032170;28;20037;-64
2022/03/28 05:14:00;;;;;;;28.08;10.70;;;;;;;4.02;77.07;102412.59;5032064;28;20041;-65
2022/03/28 05:16:26;;;;;;;23.83;10.45;;;;;;;3.99;77.29;102404.78;5030266;28;20018;-64
2022/03/28 05:18:51;;;;;;;21.55;10.48;;;;;;;3.98;77.11;102408.28;5031420;28;20018;-65
2022/03/28 05:21:16;;;;;;;24.73;10.43;;;;;;;3.98;77.63;102416.19;5031728;28;20034;-64
2022/03/28 05:23:42;;;;;;;27.10;11.55;;;;;;;3.97;77.34;102406.59;5048151;28;20530;-64
2022/03/28 05:26:07;;;;;;;26.15;11.50;;;;;;;3.95;77.21;102421.53;5035214;28;20045;-64
2022/03/28 05:28:32;;;;;;;27.05;10.98;;;;;;;3.95;77.17;102411.88;5035178;28;20022;-65
2022/03/28 05:30:58;;;;;;;30.70;11.65;;;;;;;3.93;77.99;102413.69;5035938;28;20053;-64
2022/03/28 05:33:24;;;;;;;24.13;10.13;;;;;;;3.92;77.69;102409.31;5036632;28;20053;-64
2022/03/28 05:35:50;;;;;;;25.40;10.40;;;;;;;3.93;77.22;102410.16;5036905;28;20036;-64
2022/03/28 05:38:16;;;;;;;27.45;11.10;;;;;;;3.90;78.13;102405.88;5036837;28;20033;-64
2022/03/28 05:40:41;;;;;;;25.55;10.98;;;;;;;3.89;77.24;102404.97;5036396;28;20029;-64
2022/03/28 05:43:07;;;;;;;30.77;10.93;;;;;;;3.91;77.43;102401.47;5037231;28;20021;-64
2022/03/28 05:45:35;;;;;;;23.65;10.02;;;;;;;3.86;77.65;102401.56;5034056;28;20098;-64
2022/03/28 05:48:00;;;;;;;26.13;11.02;;;;;;;3.87;77.61;102398.06;5031755;28;20026;-64
2022/03/28 05:50:25;;;;;;;24.25;10.50;;;;;;;3.86;78.35;102402.44;5034187;28;20132;-64
2022/03/28 05:52:50;;;;;;;26.10;11.55;;;;;;;3.86;78.33;102399.81;5038549;28;20033;-64
2022/03/28 05:55:16;;;;;;;31.73;11.00;;;;;;;3.87;78.41;102390.16;5032037;28;20038;-65
2022/03/28 05:57:41;;;;;;;26.55;11.07;;;;;;;3.86;78.66;102386.69;5045096;28;20040;-65
2022/03/28 06:00:09;;;;;;;23.10;10.63;;;;;;;3.90;78.93;102384.84;5043606;28;20092;-65
2022/03/28 06:02:35;;;;;;;24.65;11.00;;;;;;;3.89;78.68;102389.22;5052034;28;20098;-65
2022/03/28 06:05:01;;;;;;;29.92;11.48;;;;;;;3.91;79.24;102383.91;5039953;28;20040;-64
2022/03/28 06:07:26;;;;;;;30.95;11.68;;;;;;;3.91;79.40;102389.16;5058077;28;20038;-64
2022/03/28 06:09:51;;;;;;;24.33;10.75;;;;;;;3.95;79.10;102393.47;5037072;28;20323;-64
2022/03/28 06:12:16;;;;;;;27.45;11.20;;;;;;;3.97;79.47;102388.19;5038463;28;20022;-65
2022/03/28 06:14:42;;;;;;;26.08;10.73;;;;;;;4.00;78.92;102382.84;5038158;28;20037;-65
2022/03/28 06:17:07;;;;;;;30.15;11.05;;;;;;;4.02;79.79;102396.81;5038575;28;20060;-65
2022/03/28 06:19:32;;;;;;;25.70;11.20;;;;;;;4.06;79.95;102382.69;5038724;28;20170;-64
2022/03/28 06:21:58;;;;;;;25.08;10.60;;;;;;;4.08;79.81;102392.28;5045527;28;20056;-64
2022/03/28 06:24:23;;;;;;;21.75;11.10;;;;;;;4.11;80.06;102386.06;5047170;28;20021;-65
2022/03/28 06:26:49;;;;;;;23.63;10.45;;;;;;;4.16;80.17;102383.31;5051627;28;20029;-64
2022/03/28 06:29:14;;;;;;;27.40;11.27;;;;;;;4.18;81.13;102387.66;5064779;28;20060;-64
2022/03/28 06:31:39;;;;;;;23.20;10.55;;;;;;;4.22;80.62;102385.81;5077766;28;20040;-65
2022/03/28 06:34:05;;;;;;;26.60;11.45;;;;;;;4.26;81.46;102384.81;5076792;28;20031;-64
2022/03/28 06:36:30;;;;;;;30.98;11.75;;;;;;;4.32;81.78;102387.28;5074186;28;20056;-65
2022/03/28 06:38:57;;;;;;;29.02;11.07;;;;;;;4.36;82.35;102388.06;5076373;28;20059;-65
2022/03/28 06:41:22;;;;;;;32.28;11.23;;;;;;;4.40;82.01;102393.22;5073590;28;20228;-65
2022/03/28 06:43:47;;;;;;;33.40;11.30;;;;;;;4.45;82.13;102388.72;5037295;28;20026;-65
2022/03/28 06:46:13;;;;;;;31.83;11.63;;;;;;;4.53;82.54;102387.63;5037122;28;20079;-65
2022/03/28 06:48:39;;;;;;;28.95;11.00;;;;;;;4.60;82.11;102389.22;5043842;28;20029;-65
2022/03/28 06:51:06;;;;;;;27.35;11.55;;;;;;;4.64;82.12;102391.69;5037534;28;20049;-65
2022/03/28 06:53:32;;;;;;;28.80;11.02;;;;;;;4.73;81.97;102395.00;5037251;28;20033;-65
2022/03/28 06:55:58;;;;;;;32.28;11.25;;;;;;;4.78;82.63;102382.56;5037233;28;21302;-65
2022/03/28 06:58:24;;;;;;;30.42;11.98;;;;;;;4.87;82.65;102374.44;5036973;28;20037;-65
2022/03/28 07:00:50;;;;;;;27.40;11.02;;;;;;;4.95;83.28;102375.06;5018900;28;20077;-65
2022/03/28 07:03:15;;;;;;;33.90;12.35;;;;;;;5.02;83.75;102373.13;5056362;28;20037;-65
2022/03/28 07:05:41;;;;;;;34.05;12.45;;;;;;;5.11;83.73;102374.63;5056250;28;20146;-65
2022/03/28 07:08:07;;;;;;;32.53;12.40;;;;;;;5.17;83.76;102370.03;5039345;28;20037;-66
2022/03/28 07:10:33;;;;;;;31.90;12.27;;;;;;;5.27;84.07;102369.78;5056214;28;20049;-65
2022/03/28 07:12:58;;;;;;;31.08;12.90;;;;;;;5.34;84.16;102371.31;5055603;28;20109;-65
2022/03/28 07:15:23;;;;;;;30.98;12.20;;;;;;;5.43;84.53;102375.44;5052614;28;20068;-65
2022/03/28 07:17:58;;;;;;;30.80;12.13;;;;;;;5.53;85.00;102364.59;5036303;28;20083;-65
2022/03/28 07:20:28;;;;;;;35.95;12.77;;;;;;;5.67;85.36;102369.41;5035979;28;20147;-65
2022/03/28 07:22:54;;;;;;;33.70;13.10;;;;;;;5.78;85.37;102361.19;5036191;28;20021;-65
2022/03/28 07:25:21;;;;;;;33.00;13.18;;;;;;;5.94;85.29;102356.25;5051752;28;20033;-65
2022/03/28 07:27:47;;;;;;;40.22;14.38;;;;;;;6.10;84.61;102352.22;5047720;28;20014;-65
2022/03/28 07:30:14;;;;;;;38.45;14.38;;;;;;;6.32;84.24;102353.28;5026952;28;20057;-64
2022/03/28 07:32:40;;;;;;;33.38;14.32;;;;;;;6.46;83.92;102351.91;5024412;28;20029;-63
2022/03/28 07:35:08;;;;;;;32.38;13.55;;;;;;;6.74;82.93;102340.34;5032044;28;20029;-64
2022/03/28 07:37:34;;;;;;;36.55;13.57;;;;;;;6.94;82.26;102341.38;5035116;28;20030;-64
2022/03/28 07:40:00;;;;;;;33.13;13.95;;;;;;;7.15;81.63;102337.09;5029217;28;20076;-64
2022/03/28 07:42:25;;;;;;;32.85;13.32;;;;;;;7.39;80.99;102336.13;5047678;28;20025;-64
2022/03/28 07:44:55;;;;;;;37.95;14.57;;;;;;;7.68;80.00;102322.69;5031622;28;20036;-64
2022/03/28 07:47:21;;;;;;;32.45;13.55;;;;;;;7.89;79.60;102329.72;5048431;28;20071;-64
2022/03/28 07:49:46;;;;;;;33.80;13.85;;;;;;;8.16;79.08;102316.25;5044338;28;20022;-64
2022/03/28 07:52:12;;;;;;;34.97;14.63;;;;;;;8.38;77.39;102316.19;5042873;28;20041;-65
2022/03/28 07:54:37;;;;;;;35.55;14.95;;;;;;;8.71;76.49;102320.94;5056573;28;20045;-65
2022/03/28 07:57:03;;;;;;;36.63;14.05;;;;;;;9.01;75.35;102329.28;5044472;28;20049;-64
2022/03/28 07:59:29;;;;;;;35.53;14.90;;;;;;;9.28;73.84;102318.31;5028893;28;20029;-65
2022/03/28 08:01:54;;;;;;;30.58;14.98;;;;;;;9.61;73.50;102307.03;5057741;28;20100;-64
2022/03/28 08:04:20;;;;;;;35.28;14.63;;;;;;;9.85;72.54;102317.34;5037516;28;20030;-64
2022/03/28 08:06:45;;;;;;;33.00;13.57;;;;;;;10.18;70.98;102318.28;5018283;28;20030;-64
2022/03/28 08:09:10;;;;;;;29.08;13.93;;;;;;;10.36;69.32;102318.31;5014551;28;20840;-64
2022/03/28 08:11:36;;;;;;;35.08;14.45;;;;;;;10.60;68.57;102310.84;5011885;28;20030;-64
2022/03/28 08:14:03;;;;;;;35.80;15.23;;;;;;;10.81;67.82;102319.47;5010792;28;20030;-64
2022/03/28 08:16:29;;;;;;;34.35;14.13;;;;;;;11.08;67.34;102301.16;5022374;28;20029;-64
2022/03/28 08:18:54;;;;;;;36.13;15.00;;;;;;;11.35;66.51;102305.84;5016737;28;20392;-65
2022/03/28 08:21:20;;;;;;;27.27;13.93;;;;;;;11.52;65.63;102291.59;5015984;28;20021;-64
2022/03/28 08:23:45;;;;;;;34.10;14.13;;;;;;;11.78;64.92;102295.41;5014618;28;20038;-64
2022/03/28 08:26:10;;;;;;;33.27;14.93;;;;;;;12.05;64.21;102286.78;5012440;28;20046;-64
2022/03/28 08:28:36;;;;;;;29.95;13.95;;;;;;;12.23;62.78;102290.13;5013537;28;20817;-64
2022/03/28 08:31:01;;;;;;;36.90;14.82;;;;;;;12.54;62.57;102285.56;5034485;28;20487;-67
2022/03/28 08:33:26;;;;;;;32.03;14.50;;;;;;;12.82;61.44;102283.88;5026002;28;20147;-63
2022/03/28 08:35:52;;;;;;;33.40;13.85;;;;;;;13.04;61.08;102280.69;5024134;28;20033;-65
2022/03/28 08:38:18;;;;;;;31.17;14.80;;;;;;;13.27;60.19;102277.41;5011023;28;20034;-64
2022/03/28 08:40:44;;;;;;;28.27;14.73;;;;;;;13.53;59.15;102276.69;5033309;28;20135;-65
2022/03/28 08:43:09;;;;;;;33.55;14.90;;;;;;;13.78;58.09;102278.56;5028651;28;20022;-64
2022/03/28 08:45:37;;;;;;;34.08;14.80;;;;;;;14.07;58.12;102276.56;5022018;28;20253;-65
2022/03/28 08:48:05;;;;;;;36.13;15.83;;;;;;;14.33;57.05;102279.28;5016290;28;20069;-65
2022/03/28 08:50:30;;;;;;;28.98;15.32;;;;;;;14.56;56.47;102274.97;5012832;28;20026;-64
2022/03/28 08:52:56;;;;;;;31.75;15.23;;;;;;;14.72;55.45;102270.28;5014522;28;20040;-65
2022/03/28 08:55:22;;;;;;;30.27;15.23;;;;;;;14.90;54.66;102267.25;5013918;28;20025;-65
2022/03/28 08:57:48;;;;;;;34.03;16.10;;;;;;;15.12;54.07;102256.69;5017893;28;20269;-65
2022/03/28 09:00:13;;;;;;;33.22;16.25;;;;;;;15.31;53.96;102266.88;5017189;28;20140;-65
2022/03/28 09:02:42;;;;;;;31.60;15.55;;;;;;;15.40;53.51;102261.81;5016410;28;20058;-64
2022/03/28 09:05:09;;;;;;;31.48;16.90;;;;;;;15.62;53.36;102267.28;5016459;28;20026;-65
2022/03/28 09:07:34;;;;;;;37.08;15.98;;;;;;;15.76;52.62;102266.25;5033233;28;20021;-65
2022/03/28 09:10:06;;;;;;;32.75;16.27;;;;;;;15.91;53.07;102256.19;5024573;28;20045;-65
2022/03/28 09:12:31;;;;;;;38.05;18.33;;;;;;;16.18;51.61;102255.03;5014382;28;20586;-65
2022/03/28 09:15:01;;;;;;;34.50;19.75;;;;;;;16.33;50.38;102258.34;5012984;28;20241;-65
2022/03/28 09:17:27;;;;;;;36.10;19.27;;;;;;;16.49;49.37;102252.59;5012805;28;20018;-65
2022/03/28 09:19:55;;;;;;;33.33;19.60;;;;;;;16.55;48.85;102244.91;5013105;28;20030;-65
2022/03/28 09:22:24;;;;;;;36.55;19.80;;;;;;;16.76;49.21;102252.25;5012909;28;20384;-65
2022/03/28 09:24:55;;;;;;;37.80;20.13;;;;;;;17.02;49.60;102247.47;5013309;28;20044;-64
2022/03/28 09:27:23;;;;;;;35.42;19.80;;;;;;;17.36;48.94;102242.00;5012924;28;20141;-65
2022/03/28 09:29:58;;;;;;;31.80;19.13;;;;;;;17.55;48.22;102244.84;5010721;28;20026;-65
2022/03/28 09:32:26;;;;;;;32.85;17.73;;;;;;;17.80;48.33;102248.13;5012556;28;20038;-64
2022/03/28 09:35:01;;;;;;;31.65;18.05;;;;;;;18.14;49.06;102247.97;5011212;28;20048;-64
2022/03/28 09:37:27;;;;;;;32.70;17.33;;;;;;;18.29;46.85;102237.72;5012491;28;20042;-63
2022/03/28 09:39:52;;;;;;;29.35;16.80;;;;;;;18.47;45.96;102230.72;5018762;28;20040;-63
2022/03/28 09:42:17;;;;;;;34.63;16.85;;;;;;;18.70;45.39;102230.50;5032374;28;20434;-64
2022/03/28 09:44:51;;;;;;;31.47;17.10;;;;;;;18.87;45.43;102229.03;5030045;28;20064;-64
2022/03/28 09:47:19;;;;;;;33.92;17.92;;;;;;;18.98;45.34;102236.13;5035395;28;20299;-63
2022/03/28 09:49:46;;;;;;;31.43;18.17;;;;;;;19.21;43.52;102224.09;5034235;28;20051;-64
2022/03/28 09:52:14;;;;;;;29.25;17.67;;;;;;;19.31;43.40;102218.72;5031238;28;20275;-64
2022/03/28 09:54:52;;;;;;;31.70;17.77;;;;;;;19.52;43.99;102218.59;5033248;28;20044;-64
2022/03/28 09:57:21;;;;;;;31.40;18.15;;;;;;;19.69;43.79;102219.69;5031551;28;20366;-63
2022/03/28 09:59:47;;;;;;;;;;;;;;;20.07;46.70;102214.41;5017391;28;20054;-64
2022/03/28 10:02:17;;;;;;;27.73;17.92;;;;;;;20.06;41.57;102208.16;5016805;28;19913;-63
2022/03/28 10:04:49;;;;;;;30.27;18.02;;;;;;;20.19;41.87;102207.00;5013955;28;20044;-63
2022/03/28 10:07:14;;;;;;;32.47;18.75;;;;;;;20.28;40.71;102200.69;5023086;28;20109;-63
2022/03/28 10:09:40;;;;;;;32.55;19.20;;;;;;;20.31;40.55;102197.69;5014612;28;20050;-63
2022/03/28 10:12:06;;;;;;;34.10;19.80;;;;;;;20.42;40.51;102202.06;5015505;28;20049;-63
2022/03/28 10:14:32;;;;;;;34.58;19.80;;;;;;;20.51;40.15;102198.47;5015492;28;20032;-63
2022/03/28 10:17:01;;;;;;;33.97;20.45;;;;;;;20.65;39.51;102197.13;5015044;28;20033;-61
2022/03/28 10:19:27;;;;;;;;;;;;;;;20.99;43.67;102200.03;5015122;28;20113;-62
2022/03/28 10:21:54;;;;;;;34.47;21.45;;;;;;;20.74;38.07;102201.63;5023404;28;20007;-62
2022/03/28 10:24:24;;;;;;;35.10;21.85;;;;;;;20.89;37.97;102192.00;5034305;28;20043;-62
2022/03/28 10:26:56;;;;;;;32.72;21.75;;;;;;;21.09;38.25;102191.88;5024837;28;20050;-62
2022/03/28 10:29:22;;;;;;;30.92;20.52;;;;;;;21.30;37.50;102183.47;5044480;28;20041;-62
2022/03/28 10:32:00;;;;;;;29.73;20.90;;;;;;;21.38;38.45;102179.94;5036700;28;20016;-62
2022/03/28 10:34:43;;;;;;;28.40;20.73;;;;;;;21.49;39.30;102173.50;5041523;28;20395;-62
2022/03/28 10:37:36;;;;;;;30.95;20.42;;;;;;;21.68;38.41;102169.75;5052210;28;20024;-62
2022/03/28 10:40:16;;;;;;;29.77;19.67;;;;;;;21.74;37.56;102171.81;5014189;28;20117;-62
2022/03/28 10:43:03;;;;;;;33.45;21.25;;;;;;;21.90;37.27;102160.22;5014617;28;20034;-62
2022/03/28 10:45:35;;;;;;;31.35;19.88;;;;;;;21.93;36.20;102160.78;5013979;28;20046;-63
2022/03/28 10:48:01;;;;;;;29.85;19.73;;;;;;;21.91;34.95;102154.66;5014353;28;20033;-63
2022/03/28 10:50:30;;;;;;;32.95;21.65;;;;;;;22.06;34.44;102144.09;5013504;28;20045;-62
2022/03/28 10:53:23;;;;;;;30.67;21.27;;;;;;;22.13;35.91;102155.13;5014636;28;20047;-62
2022/03/28 10:55:50;;;;;;;29.92;20.10;;;;;;;22.44;34.04;102143.78;5014353;28;20160;-62
2022/03/28 10:58:26;;;;;;;29.95;21.50;;;;;;;22.51;35.31;102148.34;5026808;28;20033;-62
2022/03/28 11:01:12;;;;;;;29.67;20.60;;;;;;;22.66;36.37;102145.00;5014063;28;20038;-62
2022/03/28 11:03:39;;;;;;;26.85;19.75;;;;;;;22.72;32.98;102142.50;5033659;28;20033;-62
2022/03/28 11:06:05;;;;;;;29.20;20.20;;;;;;;22.81;33.25;102140.63;5044510;28;20073;-62
2022/03/28 11:08:38;;;;;;;27.42;19.63;;;;;;;22.90;34.20;102142.34;5036541;28;20061;-62
2022/03/28 11:11:20;;;;;;;28.58;19.23;;;;;;;22.97;34.13;102131.69;5031159;28;20481;-62
2022/03/28 11:14:08;;;;;;;27.95;18.30;;;;;;;23.02;34.96;102129.31;5035689;28;20041;-62